sensor_id;sensor_type;location;lat;lon;timestamp;P1;durP1;ratioP1;P2;durP2;ratioP2
30571;SDS011;17348;50.948;10.696;2023-03-01T00:00:20;44.17;;;17.97;;
30571;SDS011;17348;50.948;10.696;2023-03-01T00:03:23;41.13;;;16.67;;
30571;SDS011;17348;50.948;10.696;2023-03-01T00:06:26;49.30;;;17.13;;
30571;SDS011;17348;50.948;10.696;2023-03-01T00:09:29;35.60;;;16.17;;
30571;SDS011;17348;50.948;10.696;2023-03-01T00:12:32;40.73;;;15.67;;
30571;SDS011;17348;50.948;10.696;2023-03-01T00:15:38;46.10;;;18.57;;
30571;SDS011;17348;50.948;10.696;2023-03-01T00:18:41;45.00;;;18.07;;
30571;SDS011;17348;50.948;10.696;2023-03-01T00:21:44;47.07;;;18.80;;
30571;SDS011;17348;50.948;10.696;2023-03-01T00:24:46;42.53;;;17.87;;
30571;SDS011;17348;50.948;10.696;2023-03-01T00:27:48;40.90;;;17.53;;
30571;SDS011;17348;50.948;10.696;2023-03-01T00:30:52;52.07;;;19.63;;
30571;SDS011;17348;50.948;10.696;2023-03-01T00:33:55;53.03;;;20.13;;
30571;SDS011;17348;50.948;10.696;2023-03-01T00:36:58;57.90;;;19.23;;
30571;SDS011;17348;50.948;10.696;2023-03-01T00:40:06;46.03;;;17.23;;
30571;SDS011;17348;50.948;10.696;2023-03-01T00:43:10;42.53;;;17.77;;
30571;SDS011;17348;50.948;10.696;2023-03-01T00:46:14;46.17;;;17.60;;
30571;SDS011;17348;50.948;10.696;2023-03-01T00:49:18;51.73;;;19.50;;
30571;SDS011;17348;50.948;10.696;2023-03-01T00:52:20;43.37;;;17.73;;
30571;SDS011;17348;50.948;10.696;2023-03-01T00:55:23;47.83;;;18.53;;
30571;SDS011;17348;50.948;10.696;2023-03-01T00:58:26;47.03;;;18.60;;
30571;SDS011;17348;50.948;10.696;2023-03-01T01:01:30;47.70;;;18.47;;
30571;SDS011;17348;50.948;10.696;2023-03-01T01:04:32;49.27;;;19.63;;
30571;SDS011;17348;50.948;10.696;2023-03-01T01:07:35;50.20;;;19.93;;
30571;SDS011;17348;50.948;10.696;2023-03-01T01:10:37;57.60;;;21.27;;
30571;SDS011;17348;50.948;10.696;2023-03-01T01:13:40;51.50;;;20.27;;
30571;SDS011;17348;50.948;10.696;2023-03-01T01:16:44;50.30;;;20.87;;
30571;SDS011;17348;50.948;10.696;2023-03-01T01:19:47;47.53;;;18.70;;
30571;SDS011;17348;50.948;10.696;2023-03-01T01:22:49;51.53;;;17.97;;
30571;SDS011;17348;50.948;10.696;2023-03-01T01:25:53;41.87;;;17.23;;
30571;SDS011;17348;50.948;10.696;2023-03-01T01:28:55;44.73;;;19.47;;
30571;SDS011;17348;50.948;10.696;2023-03-01T01:31:59;47.83;;;20.07;;
30571;SDS011;17348;50.948;10.696;2023-03-01T01:35:01;48.33;;;18.73;;
30571;SDS011;17348;50.948;10.696;2023-03-01T01:38:04;45.07;;;19.60;;
30571;SDS011;17348;50.948;10.696;2023-03-01T01:41:06;47.77;;;18.43;;
30571;SDS011;17348;50.948;10.696;2023-03-01T01:44:13;57.80;;;18.73;;
30571;SDS011;17348;50.948;10.696;2023-03-01T01:47:20;47.87;;;17.67;;
30571;SDS011;17348;50.948;10.696;2023-03-01T01:50:25;50.90;;;19.67;;
30571;SDS011;17348;50.948;10.696;2023-03-01T01:53:34;48.33;;;18.83;;
30571;SDS011;17348;50.948;10.696;2023-03-01T01:56:36;50.50;;;17.63;;
30571;SDS011;17348;50.948;10.696;2023-03-01T01:59:41;41.07;;;18.07;;
30571;SDS011;17348;50.948;10.696;2023-03-01T02:02:49;42.53;;;17.23;;
30571;SDS011;17348;50.948;10.696;2023-03-01T02:05:56;46.43;;;17.90;;
30571;SDS011;17348;50.948;10.696;2023-03-01T02:09:03;43.93;;;18.50;;
30571;SDS011;17348;50.948;10.696;2023-03-01T02:12:09;56.53;;;18.30;;
30571;SDS011;17348;50.948;10.696;2023-03-01T02:15:11;46.60;;;18.37;;
30571;SDS011;17348;50.948;10.696;2023-03-01T02:18:16;45.97;;;17.17;;
30571;SDS011;17348;50.948;10.696;2023-03-01T02:21:26;52.23;;;18.57;;
30571;SDS011;17348;50.948;10.696;2023-03-01T02:24:38;43.10;;;17.33;;
30571;SDS011;17348;50.948;10.696;2023-03-01T02:27:49;50.25;;;19.33;;
30571;SDS011;17348;50.948;10.696;2023-03-01T02:31:01;48.73;;;18.90;;
30571;SDS011;17348;50.948;10.696;2023-03-01T02:34:22;50.03;;;18.67;;
30571;SDS011;17348;50.948;10.696;2023-03-01T02:37:26;51.83;;;19.13;;
30571;SDS011;17348;50.948;10.696;2023-03-01T02:40:29;41.17;;;17.37;;
30571;SDS011;17348;50.948;10.696;2023-03-01T02:43:33;52.93;;;17.73;;
30571;SDS011;17348;50.948;10.696;2023-03-01T02:46:42;44.80;;;19.13;;
30571;SDS011;17348;50.948;10.696;2023-03-01T02:49:46;38.78;;;18.30;;
30571;SDS011;17348;50.948;10.696;2023-03-01T02:52:49;48.43;;;18.93;;
30571;SDS011;17348;50.948;10.696;2023-03-01T02:59:02;45.87;;;16.83;;
30571;SDS011;17348;50.948;10.696;2023-03-01T03:02:07;45.33;;;18.57;;
30571;SDS011;17348;50.948;10.696;2023-03-01T03:05:12;48.73;;;18.47;;
30571;SDS011;17348;50.948;10.696;2023-03-01T03:08:16;42.27;;;17.63;;
30571;SDS011;17348;50.948;10.696;2023-03-01T03:11:24;40.57;;;17.27;;
30571;SDS011;17348;50.948;10.696;2023-03-01T03:14:26;41.80;;;18.53;;
30571;SDS011;17348;50.948;10.696;2023-03-01T03:17:30;44.43;;;18.87;;
30571;SDS011;17348;50.948;10.696;2023-03-01T03:20:32;54.83;;;19.57;;
30571;SDS011;17348;50.948;10.696;2023-03-01T03:23:34;47.70;;;19.20;;
30571;SDS011;17348;50.948;10.696;2023-03-01T03:26:37;45.30;;;17.43;;
30571;SDS011;17348;50.948;10.696;2023-03-01T03:29:39;50.53;;;18.77;;
30571;SDS011;17348;50.948;10.696;2023-03-01T03:32:44;48.90;;;17.93;;
30571;SDS011;17348;50.948;10.696;2023-03-01T03:35:52;37.15;;;15.60;;
30571;SDS011;17348;50.948;10.696;2023-03-01T03:38:54;39.57;;;16.03;;
30571;SDS011;17348;50.948;10.696;2023-03-01T03:41:57;44.30;;;16.50;;
30571;SDS011;17348;50.948;10.696;2023-03-01T03:44:59;44.50;;;16.20;;
30571;SDS011;17348;50.948;10.696;2023-03-01T03:48:03;40.20;;;17.23;;
30571;SDS011;17348;50.948;10.696;2023-03-01T03:51:09;46.73;;;18.47;;
30571;SDS011;17348;50.948;10.696;2023-03-01T03:54:12;43.17;;;16.37;;
30571;SDS011;17348;50.948;10.696;2023-03-01T03:57:14;43.93;;;17.27;;
30571;SDS011;17348;50.948;10.696;2023-03-01T04:00:17;45.50;;;18.03;;
30571;SDS011;17348;50.948;10.696;2023-03-01T04:03:22;42.90;;;16.23;;
30571;SDS011;17348;50.948;10.696;2023-03-01T04:06:25;46.63;;;16.87;;
30571;SDS011;17348;50.948;10.696;2023-03-01T04:09:28;51.07;;;17.07;;
30571;SDS011;17348;50.948;10.696;2023-03-01T04:12:30;46.30;;;17.80;;
30571;SDS011;17348;50.948;10.696;2023-03-01T04:15:34;43.53;;;17.43;;
30571;SDS011;17348;50.948;10.696;2023-03-01T04:18:38;38.67;;;16.57;;
30571;SDS011;17348;50.948;10.696;2023-03-01T04:21:41;47.93;;;18.33;;
30571;SDS011;17348;50.948;10.696;2023-03-01T04:24:43;44.63;;;16.33;;
30571;SDS011;17348;50.948;10.696;2023-03-01T04:27:45;37.77;;;18.13;;
30571;SDS011;17348;50.948;10.696;2023-03-01T04:30:47;50.17;;;16.40;;
30571;SDS011;17348;50.948;10.696;2023-03-01T04:33:52;44.63;;;16.80;;
30571;SDS011;17348;50.948;10.696;2023-03-01T04:36:55;40.20;;;15.83;;
30571;SDS011;17348;50.948;10.696;2023-03-01T04:39:58;42.83;;;16.40;;
30571;SDS011;17348;50.948;10.696;2023-03-01T04:43:00;44.43;;;15.73;;
30571;SDS011;17348;50.948;10.696;2023-03-01T04:46:04;41.33;;;17.00;;
30571;SDS011;17348;50.948;10.696;2023-03-01T04:49:10;44.20;;;16.07;;
30571;SDS011;17348;50.948;10.696;2023-03-01T04:52:12;45.23;;;16.50;;
30571;SDS011;17348;50.948;10.696;2023-03-01T04:55:17;46.03;;;16.73;;
30571;SDS011;17348;50.948;10.696;2023-03-01T04:58:19;40.77;;;16.00;;
30571;SDS011;17348;50.948;10.696;2023-03-01T05:04:40;90.37;;;25.03;;
30571;SDS011;17348;50.948;10.696;2023-03-01T05:07:43;100.37;;;30.53;;
30571;SDS011;17348;50.948;10.696;2023-03-01T05:10:46;90.20;;;27.50;;
30571;SDS011;17348;50.948;10.696;2023-03-01T05:13:50;92.13;;;27.00;;
30571;SDS011;17348;50.948;10.696;2023-03-01T05:16:55;75.73;;;25.97;;
30571;SDS011;17348;50.948;10.696;2023-03-01T05:20:06;64.23;;;22.87;;
30571;SDS011;17348;50.948;10.696;2023-03-01T05:23:10;52.47;;;20.60;;
30571;SDS011;17348;50.948;10.696;2023-03-01T05:26:13;58.97;;;20.90;;
30571;SDS011;17348;50.948;10.696;2023-03-01T05:29:15;61.23;;;20.57;;
30571;SDS011;17348;50.948;10.696;2023-03-01T05:32:18;58.30;;;22.07;;
30571;SDS011;17348;50.948;10.696;2023-03-01T05:35:22;44.43;;;19.10;;
30571;SDS011;17348;50.948;10.696;2023-03-01T05:38:24;58.00;;;21.97;;
30571;SDS011;17348;50.948;10.696;2023-03-01T05:41:26;55.20;;;20.03;;
30571;SDS011;17348;50.948;10.696;2023-03-01T05:44:29;55.20;;;20.13;;
30571;SDS011;17348;50.948;10.696;2023-03-01T05:47:31;59.00;;;21.57;;
30571;SDS011;17348;50.948;10.696;2023-03-01T05:50:35;62.87;;;24.80;;
30571;SDS011;17348;50.948;10.696;2023-03-01T05:53:39;61.20;;;24.23;;
30571;SDS011;17348;50.948;10.696;2023-03-01T05:56:42;53.87;;;19.50;;
30571;SDS011;17348;50.948;10.696;2023-03-01T05:59:45;54.00;;;21.10;;
30571;SDS011;17348;50.948;10.696;2023-03-01T06:02:48;53.23;;;22.00;;
30571;SDS011;17348;50.948;10.696;2023-03-01T06:05:55;54.07;;;20.60;;
30571;SDS011;17348;50.948;10.696;2023-03-01T06:08:57;49.70;;;20.77;;
30571;SDS011;17348;50.948;10.696;2023-03-01T06:12:00;52.10;;;20.13;;
30571;SDS011;17348;50.948;10.696;2023-03-01T06:15:02;60.00;;;21.87;;
30571;SDS011;17348;50.948;10.696;2023-03-01T06:18:05;57.93;;;21.73;;
30571;SDS011;17348;50.948;10.696;2023-03-01T06:21:09;52.83;;;17.93;;
30571;SDS011;17348;50.948;10.696;2023-03-01T06:24:11;54.87;;;21.60;;
30571;SDS011;17348;50.948;10.696;2023-03-01T06:27:14;59.00;;;21.70;;
30571;SDS011;17348;50.948;10.696;2023-03-01T06:30:17;55.77;;;19.70;;
30571;SDS011;17348;50.948;10.696;2023-03-01T06:33:20;52.97;;;20.27;;
30571;SDS011;17348;50.948;10.696;2023-03-01T06:36:26;65.90;;;21.90;;
30571;SDS011;17348;50.948;10.696;2023-03-01T06:39:28;72.50;;;23.87;;
30571;SDS011;17348;50.948;10.696;2023-03-01T06:42:30;69.23;;;26.27;;
30571;SDS011;17348;50.948;10.696;2023-03-01T06:45:33;62.80;;;25.87;;
30571;SDS011;17348;50.948;10.696;2023-03-01T06:48:35;62.27;;;24.33;;
30571;SDS011;17348;50.948;10.696;2023-03-01T06:51:39;57.70;;;22.43;;
30571;SDS011;17348;50.948;10.696;2023-03-01T06:54:41;53.77;;;22.20;;
30571;SDS011;17348;50.948;10.696;2023-03-01T06:57:44;60.03;;;19.53;;
30571;SDS011;17348;50.948;10.696;2023-03-01T07:00:46;54.83;;;18.97;;
30571;SDS011;17348;50.948;10.696;2023-03-01T07:03:49;50.60;;;21.47;;
30571;SDS011;17348;50.948;10.696;2023-03-01T07:06:52;53.60;;;21.53;;
30571;SDS011;17348;50.948;10.696;2023-03-01T07:09:55;47.43;;;22.23;;
30571;SDS011;17348;50.948;10.696;2023-03-01T07:12:58;57.13;;;21.03;;
30571;SDS011;17348;50.948;10.696;2023-03-01T07:16:01;53.63;;;22.83;;
30571;SDS011;17348;50.948;10.696;2023-03-01T07:19:03;51.80;;;19.47;;
30571;SDS011;17348;50.948;10.696;2023-03-01T07:22:07;44.40;;;20.23;;
30571;SDS011;17348;50.948;10.696;2023-03-01T07:25:10;43.13;;;20.03;;
30571;SDS011;17348;50.948;10.696;2023-03-01T07:28:12;42.40;;;20.13;;
30571;SDS011;17348;50.948;10.696;2023-03-01T07:31:15;42.83;;;18.30;;
30571;SDS011;17348;50.948;10.696;2023-03-01T07:34:17;41.00;;;18.33;;
30571;SDS011;17348;50.948;10.696;2023-03-01T07:37:21;47.80;;;19.17;;
30571;SDS011;17348;50.948;10.696;2023-03-01T07:40:23;39.83;;;18.23;;
30571;SDS011;17348;50.948;10.696;2023-03-01T07:43:26;44.53;;;19.00;;
30571;SDS011;17348;50.948;10.696;2023-03-01T07:46:29;40.20;;;16.83;;
30571;SDS011;17348;50.948;10.696;2023-03-01T07:49:31;39.87;;;15.10;;
30571;SDS011;17348;50.948;10.696;2023-03-01T07:52:35;37.67;;;16.37;;
30571;SDS011;17348;50.948;10.696;2023-03-01T07:55:37;34.13;;;15.20;;
30571;SDS011;17348;50.948;10.696;2023-03-01T07:58:41;36.97;;;14.63;;
30571;SDS011;17348;50.948;10.696;2023-03-01T08:01:44;37.13;;;15.77;;
30571;SDS011;17348;50.948;10.696;2023-03-01T08:04:46;44.17;;;16.77;;
30571;SDS011;17348;50.948;10.696;2023-03-01T08:07:50;36.63;;;15.67;;
30571;SDS011;17348;50.948;10.696;2023-03-01T08:10:52;32.93;;;14.23;;
30571;SDS011;17348;50.948;10.696;2023-03-01T08:13:58;32.03;;;13.83;;
30571;SDS011;17348;50.948;10.696;2023-03-01T08:17:00;34.90;;;15.33;;
30571;SDS011;17348;50.948;10.696;2023-03-01T08:20:03;30.67;;;15.10;;
30571;SDS011;17348;50.948;10.696;2023-03-01T08:23:08;30.50;;;14.50;;
30571;SDS011;17348;50.948;10.696;2023-03-01T08:26:12;28.13;;;13.37;;
30571;SDS011;17348;50.948;10.696;2023-03-01T08:29:16;34.50;;;14.60;;
30571;SDS011;17348;50.948;10.696;2023-03-01T08:32:18;37.43;;;15.93;;
30571;SDS011;17348;50.948;10.696;2023-03-01T08:35:20;31.57;;;15.30;;
30571;SDS011;17348;50.948;10.696;2023-03-01T08:38:24;33.73;;;14.80;;
30571;SDS011;17348;50.948;10.696;2023-03-01T08:41:27;43.07;;;16.57;;
30571;SDS011;17348;50.948;10.696;2023-03-01T08:44:29;31.07;;;15.13;;
30571;SDS011;17348;50.948;10.696;2023-03-01T08:47:32;44.53;;;16.47;;
30571;SDS011;17348;50.948;10.696;2023-03-01T08:50:34;38.53;;;16.73;;
30571;SDS011;17348;50.948;10.696;2023-03-01T08:53:38;42.80;;;18.30;;
30571;SDS011;17348;50.948;10.696;2023-03-01T08:56:41;39.37;;;16.97;;
30571;SDS011;17348;50.948;10.696;2023-03-01T08:59:43;46.83;;;16.30;;
30571;SDS011;17348;50.948;10.696;2023-03-01T09:02:46;33.93;;;15.67;;
30571;SDS011;17348;50.948;10.696;2023-03-01T09:05:48;32.83;;;15.60;;
30571;SDS011;17348;50.948;10.696;2023-03-01T09:08:52;35.80;;;16.77;;
30571;SDS011;17348;50.948;10.696;2023-03-01T09:11:55;43.33;;;16.33;;
30571;SDS011;17348;50.948;10.696;2023-03-01T09:14:57;40.90;;;17.00;;
30571;SDS011;17348;50.948;10.696;2023-03-01T09:18:00;38.07;;;16.57;;
30571;SDS011;17348;50.948;10.696;2023-03-01T09:21:03;44.13;;;17.13;;
30571;SDS011;17348;50.948;10.696;2023-03-01T09:24:12;42.93;;;16.73;;
30571;SDS011;17348;50.948;10.696;2023-03-01T09:27:15;42.87;;;16.50;;
30571;SDS011;17348;50.948;10.696;2023-03-01T09:30:19;41.10;;;16.03;;
30571;SDS011;17348;50.948;10.696;2023-03-01T09:33:22;37.93;;;16.40;;
30571;SDS011;17348;50.948;10.696;2023-03-01T09:36:24;38.40;;;15.27;;
30571;SDS011;17348;50.948;10.696;2023-03-01T09:39:28;36.87;;;15.07;;
30571;SDS011;17348;50.948;10.696;2023-03-01T09:42:31;38.10;;;14.80;;
30571;SDS011;17348;50.948;10.696;2023-03-01T09:45:36;31.00;;;13.73;;
30571;SDS011;17348;50.948;10.696;2023-03-01T09:48:43;39.07;;;15.50;;
30571;SDS011;17348;50.948;10.696;2023-03-01T09:51:54;36.27;;;13.87;;
30571;SDS011;17348;50.948;10.696;2023-03-01T09:55:01;31.37;;;14.30;;
30571;SDS011;17348;50.948;10.696;2023-03-01T09:58:21;29.67;;;13.67;;
30571;SDS011;17348;50.948;10.696;2023-03-01T10:01:34;33.73;;;13.13;;
30571;SDS011;17348;50.948;10.696;2023-03-01T10:04:41;30.00;;;13.60;;
30571;SDS011;17348;50.948;10.696;2023-03-01T10:07:48;32.67;;;14.47;;
30571;SDS011;17348;50.948;10.696;2023-03-01T10:11:00;34.17;;;15.00;;
30571;SDS011;17348;50.948;10.696;2023-03-01T10:14:04;39.93;;;14.07;;
30571;SDS011;17348;50.948;10.696;2023-03-01T10:17:17;37.00;;;13.83;;
30571;SDS011;17348;50.948;10.696;2023-03-01T10:20:28;33.97;;;14.70;;
30571;SDS011;17348;50.948;10.696;2023-03-01T10:23:39;34.67;;;14.10;;
30571;SDS011;17348;50.948;10.696;2023-03-01T10:26:47;40.90;;;14.60;;
30571;SDS011;17348;50.948;10.696;2023-03-01T10:29:55;31.07;;;12.90;;
30571;SDS011;17348;50.948;10.696;2023-03-01T10:33:04;34.53;;;14.57;;
30571;SDS011;17348;50.948;10.696;2023-03-01T10:36:16;37.00;;;15.33;;
30571;SDS011;17348;50.948;10.696;2023-03-01T10:39:19;34.20;;;14.30;;
30571;SDS011;17348;50.948;10.696;2023-03-01T10:42:26;31.73;;;13.17;;
30571;SDS011;17348;50.948;10.696;2023-03-01T10:45:33;31.57;;;13.40;;
30571;SDS011;17348;50.948;10.696;2023-03-01T10:48:37;35.60;;;14.93;;
30571;SDS011;17348;50.948;10.696;2023-03-01T10:51:39;37.23;;;15.20;;
30571;SDS011;17348;50.948;10.696;2023-03-01T10:54:43;35.33;;;14.43;;
30571;SDS011;17348;50.948;10.696;2023-03-01T10:58:07;36.43;;;13.77;;
30571;SDS011;17348;50.948;10.696;2023-03-01T11:01:24;33.37;;;13.83;;
30571;SDS011;17348;50.948;10.696;2023-03-01T11:04:28;32.20;;;16.30;;
30571;SDS011;17348;50.948;10.696;2023-03-01T11:07:31;32.67;;;12.73;;
30571;SDS011;17348;50.948;10.696;2023-03-01T11:10:49;32.00;;;13.60;;
30571;SDS011;17348;50.948;10.696;2023-03-01T11:13:57;33.47;;;12.83;;
30571;SDS011;17348;50.948;10.696;2023-03-01T11:17:01;28.17;;;12.67;;
30571;SDS011;17348;50.948;10.696;2023-03-01T11:20:10;28.67;;;13.13;;
30571;SDS011;17348;50.948;10.696;2023-03-01T11:23:22;30.30;;;13.10;;
30571;SDS011;17348;50.948;10.696;2023-03-01T11:26:25;38.03;;;14.13;;
30571;SDS011;17348;50.948;10.696;2023-03-01T11:29:34;30.43;;;14.40;;
30571;SDS011;17348;50.948;10.696;2023-03-01T11:32:40;32.90;;;11.70;;
30571;SDS011;17348;50.948;10.696;2023-03-01T11:35:48;32.30;;;13.03;;
30571;SDS011;17348;50.948;10.696;2023-03-01T11:38:56;30.77;;;12.70;;
30571;SDS011;17348;50.948;10.696;2023-03-01T11:42:05;25.63;;;12.40;;
30571;SDS011;17348;50.948;10.696;2023-03-01T11:45:18;27.67;;;12.50;;
30571;SDS011;17348;50.948;10.696;2023-03-01T11:48:28;29.03;;;13.37;;
30571;SDS011;17348;50.948;10.696;2023-03-01T11:51:45;25.77;;;11.27;;
30571;SDS011;17348;50.948;10.696;2023-03-01T11:54:58;29.97;;;11.50;;
30571;SDS011;17348;50.948;10.696;2023-03-01T11:58:25;31.03;;;13.57;;
30571;SDS011;17348;50.948;10.696;2023-03-01T12:01:40;32.93;;;12.23;;
30571;SDS011;17348;50.948;10.696;2023-03-01T12:05:03;27.67;;;12.70;;
30571;SDS011;17348;50.948;10.696;2023-03-01T12:08:17;32.00;;;14.13;;
30571;SDS011;17348;50.948;10.696;2023-03-01T12:11:28;31.10;;;12.20;;
30571;SDS011;17348;50.948;10.696;2023-03-01T12:14:44;27.80;;;13.10;;
30571;SDS011;17348;50.948;10.696;2023-03-01T12:21:40;31.50;;;13.83;;
30571;SDS011;17348;50.948;10.696;2023-03-01T12:25:04;30.13;;;13.90;;
30571;SDS011;17348;50.948;10.696;2023-03-01T12:28:23;36.80;;;14.90;;
30571;SDS011;17348;50.948;10.696;2023-03-01T12:35:08;32.93;;;13.70;;
30571;SDS011;17348;50.948;10.696;2023-03-01T12:38:32;29.97;;;13.70;;
30571;SDS011;17348;50.948;10.696;2023-03-01T12:41:43;35.00;;;12.35;;
30571;SDS011;17348;50.948;10.696;2023-03-01T12:44:57;30.63;;;12.13;;
30571;SDS011;17348;50.948;10.696;2023-03-01T12:48:31;28.37;;;11.60;;
30571;SDS011;17348;50.948;10.696;2023-03-01T12:51:49;29.77;;;12.47;;
30571;SDS011;17348;50.948;10.696;2023-03-01T12:54:55;24.65;;;10.93;;
30571;SDS011;17348;50.948;10.696;2023-03-01T12:58:05;21.90;;;10.37;;
30571;SDS011;17348;50.948;10.696;2023-03-01T13:01:22;29.03;;;11.57;;
30571;SDS011;17348;50.948;10.696;2023-03-01T13:04:40;38.30;;;12.50;;
30571;SDS011;17348;50.948;10.696;2023-03-01T13:08:04;28.33;;;12.80;;
30571;SDS011;17348;50.948;10.696;2023-03-01T13:11:15;27.85;;;12.65;;
30571;SDS011;17348;50.948;10.696;2023-03-01T13:14:36;32.07;;;14.03;;
30571;SDS011;17348;50.948;10.696;2023-03-01T13:17:45;28.87;;;12.13;;
30571;SDS011;17348;50.948;10.696;2023-03-01T13:20:48;32.40;;;13.33;;
30571;SDS011;17348;50.948;10.696;2023-03-01T13:23:53;28.53;;;13.00;;
30571;SDS011;17348;50.948;10.696;2023-03-01T13:27:08;30.40;;;13.07;;
30571;SDS011;17348;50.948;10.696;2023-03-01T13:30:38;35.73;;;13.80;;
30571;SDS011;17348;50.948;10.696;2023-03-01T13:33:44;27.97;;;12.37;;
30571;SDS011;17348;50.948;10.696;2023-03-01T13:36:47;24.67;;;12.07;;
30571;SDS011;17348;50.948;10.696;2023-03-01T13:39:52;28.80;;;11.40;;
30571;SDS011;17348;50.948;10.696;2023-03-01T13:42:55;30.53;;;13.23;;
30571;SDS011;17348;50.948;10.696;2023-03-01T13:45:57;34.23;;;12.83;;
30571;SDS011;17348;50.948;10.696;2023-03-01T13:49:01;33.50;;;12.97;;
30571;SDS011;17348;50.948;10.696;2023-03-01T13:52:03;29.93;;;11.97;;
30571;SDS011;17348;50.948;10.696;2023-03-01T13:55:16;27.43;;;12.07;;
30571;SDS011;17348;50.948;10.696;2023-03-01T13:58:23;27.60;;;11.03;;
30571;SDS011;17348;50.948;10.696;2023-03-01T14:01:27;29.60;;;12.97;;
30571;SDS011;17348;50.948;10.696;2023-03-01T14:04:34;28.03;;;12.57;;
30571;SDS011;17348;50.948;10.696;2023-03-01T14:07:38;26.67;;;13.37;;
30571;SDS011;17348;50.948;10.696;2023-03-01T14:10:45;30.60;;;12.50;;
30571;SDS011;17348;50.948;10.696;2023-03-01T14:14:27;33.27;;;13.27;;
30571;SDS011;17348;50.948;10.696;2023-03-01T14:17:43;28.73;;;12.67;;
30571;SDS011;17348;50.948;10.696;2023-03-01T14:20:57;29.77;;;12.93;;
30571;SDS011;17348;50.948;10.696;2023-03-01T14:23:59;36.50;;;11.37;;
30571;SDS011;17348;50.948;10.696;2023-03-01T14:27:04;28.50;;;12.33;;
30571;SDS011;17348;50.948;10.696;2023-03-01T14:30:13;28.27;;;11.93;;
30571;SDS011;17348;50.948;10.696;2023-03-01T14:33:22;26.57;;;12.60;;
30571;SDS011;17348;50.948;10.696;2023-03-01T14:36:26;26.30;;;11.47;;
30571;SDS011;17348;50.948;10.696;2023-03-01T14:39:30;30.20;;;11.87;;
30571;SDS011;17348;50.948;10.696;2023-03-01T14:42:35;23.00;;;12.33;;
30571;SDS011;17348;50.948;10.696;2023-03-01T14:45:38;33.70;;;13.23;;
30571;SDS011;17348;50.948;10.696;2023-03-01T14:48:41;36.60;;;12.80;;
30571;SDS011;17348;50.948;10.696;2023-03-01T14:51:46;26.87;;;12.47;;
30571;SDS011;17348;50.948;10.696;2023-03-01T14:54:53;30.13;;;12.53;;
30571;SDS011;17348;50.948;10.696;2023-03-01T14:57:58;36.23;;;12.10;;
30571;SDS011;17348;50.948;10.696;2023-03-01T15:01:02;37.33;;;11.63;;
30571;SDS011;17348;50.948;10.696;2023-03-01T15:04:06;32.17;;;11.73;;
30571;SDS011;17348;50.948;10.696;2023-03-01T15:07:12;24.77;;;10.50;;
30571;SDS011;17348;50.948;10.696;2023-03-01T15:10:17;30.77;;;12.20;;
30571;SDS011;17348;50.948;10.696;2023-03-01T15:13:24;27.50;;;13.23;;
30571;SDS011;17348;50.948;10.696;2023-03-01T15:16:29;24.47;;;10.43;;
30571;SDS011;17348;50.948;10.696;2023-03-01T15:19:33;22.97;;;10.37;;
30571;SDS011;17348;50.948;10.696;2023-03-01T15:22:35;33.53;;;11.90;;
30571;SDS011;17348;50.948;10.696;2023-03-01T15:25:44;21.53;;;10.30;;
30571;SDS011;17348;50.948;10.696;2023-03-01T15:28:50;24.17;;;11.03;;
30571;SDS011;17348;50.948;10.696;2023-03-01T15:31:56;28.60;;;11.07;;
30571;SDS011;17348;50.948;10.696;2023-03-01T15:35:01;25.67;;;10.77;;
30571;SDS011;17348;50.948;10.696;2023-03-01T15:38:50;22.20;;;9.90;;
30571;SDS011;17348;50.948;10.696;2023-03-01T15:41:54;26.97;;;10.70;;
30571;SDS011;17348;50.948;10.696;2023-03-01T15:45:08;32.60;;;12.10;;
30571;SDS011;17348;50.948;10.696;2023-03-01T15:48:14;32.93;;;11.13;;
30571;SDS011;17348;50.948;10.696;2023-03-01T15:51:22;27.33;;;10.00;;
30571;SDS011;17348;50.948;10.696;2023-03-01T15:54:30;27.80;;;11.17;;
30571;SDS011;17348;50.948;10.696;2023-03-01T15:57:32;21.73;;;10.90;;
30571;SDS011;17348;50.948;10.696;2023-03-01T16:00:36;23.97;;;11.17;;
30571;SDS011;17348;50.948;10.696;2023-03-01T16:03:39;25.60;;;10.77;;
30571;SDS011;17348;50.948;10.696;2023-03-01T16:06:42;26.27;;;11.73;;
30571;SDS011;17348;50.948;10.696;2023-03-01T16:09:44;27.43;;;11.67;;
30571;SDS011;17348;50.948;10.696;2023-03-01T16:12:46;27.80;;;11.67;;
30571;SDS011;17348;50.948;10.696;2023-03-01T16:15:51;21.37;;;10.57;;
30571;SDS011;17348;50.948;10.696;2023-03-01T16:18:54;27.33;;;11.53;;
30571;SDS011;17348;50.948;10.696;2023-03-01T16:21:56;33.20;;;12.00;;
30571;SDS011;17348;50.948;10.696;2023-03-01T16:24:58;26.37;;;12.43;;
30571;SDS011;17348;50.948;10.696;2023-03-01T16:28:03;25.43;;;11.37;;
30571;SDS011;17348;50.948;10.696;2023-03-01T16:31:10;28.83;;;11.93;;
30571;SDS011;17348;50.948;10.696;2023-03-01T16:34:14;25.77;;;11.20;;
30571;SDS011;17348;50.948;10.696;2023-03-01T16:37:17;32.50;;;12.80;;
30571;SDS011;17348;50.948;10.696;2023-03-01T16:40:20;26.87;;;11.93;;
30571;SDS011;17348;50.948;10.696;2023-03-01T16:43:26;26.23;;;12.03;;
30571;SDS011;17348;50.948;10.696;2023-03-01T16:46:30;26.50;;;12.13;;
30571;SDS011;17348;50.948;10.696;2023-03-01T16:49:32;37.10;;;12.27;;
30571;SDS011;17348;50.948;10.696;2023-03-01T16:52:35;26.67;;;10.53;;
30571;SDS011;17348;50.948;10.696;2023-03-01T16:55:37;31.43;;;12.10;;
30571;SDS011;17348;50.948;10.696;2023-03-01T16:58:45;30.77;;;11.23;;
30571;SDS011;17348;50.948;10.696;2023-03-01T17:01:49;30.30;;;12.30;;
30571;SDS011;17348;50.948;10.696;2023-03-01T17:04:52;31.33;;;12.37;;
30571;SDS011;17348;50.948;10.696;2023-03-01T17:07:55;30.60;;;12.90;;
30571;SDS011;17348;50.948;10.696;2023-03-01T17:11:04;25.00;;;11.23;;
30571;SDS011;17348;50.948;10.696;2023-03-01T17:14:08;30.37;;;11.77;;
30571;SDS011;17348;50.948;10.696;2023-03-01T17:17:12;32.73;;;12.63;;
30571;SDS011;17348;50.948;10.696;2023-03-01T17:20:18;29.40;;;11.33;;
30571;SDS011;17348;50.948;10.696;2023-03-01T17:23:21;34.33;;;13.43;;
30571;SDS011;17348;50.948;10.696;2023-03-01T17:26:23;28.83;;;11.33;;
30571;SDS011;17348;50.948;10.696;2023-03-01T17:29:25;26.90;;;11.30;;
30571;SDS011;17348;50.948;10.696;2023-03-01T17:32:29;27.50;;;12.70;;
30571;SDS011;17348;50.948;10.696;2023-03-01T17:35:32;37.20;;;12.47;;
30571;SDS011;17348;50.948;10.696;2023-03-01T17:38:37;30.77;;;12.17;;
30571;SDS011;17348;50.948;10.696;2023-03-01T17:41:39;29.10;;;13.03;;
30571;SDS011;17348;50.948;10.696;2023-03-01T17:44:42;32.73;;;11.23;;
30571;SDS011;17348;50.948;10.696;2023-03-01T17:47:45;33.57;;;12.47;;
30571;SDS011;17348;50.948;10.696;2023-03-01T17:50:48;32.33;;;12.50;;
30571;SDS011;17348;50.948;10.696;2023-03-01T17:53:50;28.07;;;12.83;;
30571;SDS011;17348;50.948;10.696;2023-03-01T17:56:53;32.47;;;13.43;;
30571;SDS011;17348;50.948;10.696;2023-03-01T17:59:58;30.83;;;12.53;;
30571;SDS011;17348;50.948;10.696;2023-03-01T18:03:02;32.50;;;13.80;;